METAR Data
IDs: Format: Raw Decoded Include TAF

Data at: 1322 UTC 26 Feb 2021

EGKK 261250Z 35005KT 320V040 CAVOK 11/M02 Q1037